createdAt,value
2017-09-19T00:00:53.070Z,1.83
2017-09-19T00:02:55.541Z,2.10
2017-09-19T00:04:58.033Z,2.10
2017-09-19T00:07:00.574Z,1.97
2017-09-19T00:09:03.028Z,2.37
2017-09-19T00:11:05.470Z,1.80
2017-09-19T00:13:07.969Z,2.30
2017-09-19T00:15:10.511Z,2.67
2017-09-19T00:17:13.042Z,2.10
2017-09-19T00:19:15.485Z,3.30
2017-09-19T00:21:17.984Z,2.20
2017-09-19T00:23:20.420Z,2.00
2017-09-19T00:25:22.854Z,1.97
2017-09-19T00:27:25.338Z,1.80
2017-09-19T00:29:27.813Z,2.40
2017-09-19T00:31:30.260Z,1.73
2017-09-19T00:33:32.754Z,2.10
2017-09-19T00:35:35.226Z,1.70
2017-09-19T00:37:37.668Z,2.00
2017-09-19T00:39:40.210Z,1.67
2017-09-19T00:41:42.780Z,1.90
2017-09-19T00:43:45.251Z,2.23
2017-09-19T00:45:47.762Z,2.00
2017-09-19T00:47:50.199Z,2.23
2017-09-19T00:49:52.638Z,1.80
2017-09-19T00:51:55.092Z,1.70
2017-09-19T00:53:57.589Z,1.90
2017-09-19T00:56:00.039Z,2.10
2017-09-19T00:58:02.497Z,2.80
2017-09-19T01:00:04.941Z,3.47
2017-09-19T01:02:07.431Z,2.10
2017-09-19T01:04:09.985Z,2.30
2017-09-19T01:06:12.526Z,1.60
2017-09-19T01:08:14.963Z,2.00
2017-09-19T01:10:17.572Z,1.83
2017-09-19T01:12:20.037Z,2.07
2017-09-19T01:14:22.477Z,2.07
2017-09-19T01:16:25.062Z,2.37
2017-09-19T01:18:27.522Z,2.17
2017-09-19T01:20:29.980Z,3.77
2017-09-19T01:22:32.586Z,1.93
2017-09-19T01:24:35.083Z,2.27
2017-09-19T01:26:37.740Z,1.50
2017-09-19T01:28:40.207Z,1.87
2017-09-19T01:30:42.752Z,2.60
2017-09-19T01:32:45.252Z,1.77
2017-09-19T01:34:47.721Z,2.40
2017-09-19T01:36:50.196Z,2.30
2017-09-19T01:38:52.648Z,2.30
2017-09-19T01:40:55.115Z,2.27
2017-09-19T01:42:57.647Z,1.97
2017-09-19T01:45:00.121Z,1.90
2017-09-19T01:47:02.587Z,2.80
2017-09-19T01:49:05.062Z,1.90
2017-09-19T01:51:07.627Z,2.40
2017-09-19T01:53:10.086Z,2.10
2017-09-19T01:55:12.564Z,2.47
2017-09-19T01:57:15.054Z,2.10
2017-09-19T01:59:17.504Z,2.00
2017-09-19T02:01:19.998Z,1.80
2017-09-19T02:03:22.508Z,1.90
2017-09-19T02:05:25.082Z,2.10
2017-09-19T02:07:27.553Z,2.20
2017-09-19T02:09:29.984Z,1.63
2017-09-19T02:11:32.456Z,2.00
2017-09-19T02:13:34.898Z,1.83
2017-09-19T02:15:37.334Z,1.63
2017-09-19T02:17:39.805Z,1.60
2017-09-19T02:19:42.326Z,2.00
2017-09-19T02:21:44.783Z,1.80
2017-09-19T02:23:47.341Z,1.87
2017-09-19T02:25:49.813Z,1.90
2017-09-19T02:27:52.283Z,2.27
2017-09-19T02:29:54.757Z,2.43
2017-09-19T02:31:57.197Z,2.10
2017-09-19T02:33:59.638Z,2.10
2017-09-19T02:36:02.088Z,1.87
2017-09-19T02:38:04.518Z,1.90
2017-09-19T02:40:07.074Z,2.13
2017-09-19T02:42:09.580Z,1.90
2017-09-19T02:44:12.120Z,1.90
2017-09-19T02:46:14.563Z,2.23
2017-09-19T02:48:17.031Z,2.07
2017-09-19T02:50:19.480Z,2.00
2017-09-19T02:52:21.908Z,2.00
2017-09-19T02:54:24.396Z,2.90
2017-09-19T02:56:27.040Z,1.87
2017-09-19T02:58:29.472Z,1.90
2017-09-19T03:00:31.940Z,1.60
2017-09-19T03:02:34.394Z,1.90
2017-09-19T03:04:36.829Z,2.07
2017-09-19T03:06:39.322Z,2.07
2017-09-19T03:08:41.761Z,2.17
2017-09-19T03:10:44.231Z,2.40
2017-09-19T03:12:46.695Z,1.73
2017-09-19T03:14:49.220Z,1.70
2017-09-19T03:16:51.673Z,1.60
2017-09-19T03:18:54.219Z,1.70
2017-09-19T03:20:56.679Z,2.00
2017-09-19T03:22:59.167Z,1.80
2017-09-19T03:25:01.751Z,2.43
2017-09-19T03:27:04.196Z,1.97
2017-09-19T03:29:06.748Z,1.83
2017-09-19T03:31:09.255Z,2.00
2017-09-19T03:33:11.813Z,1.90
2017-09-19T03:35:14.384Z,1.70
2017-09-19T03:37:16.856Z,2.00
2017-09-19T03:39:19.329Z,1.80
2017-09-19T03:41:21.769Z,1.70
2017-09-19T03:43:24.253Z,2.43
2017-09-19T03:45:26.938Z,1.80
2017-09-19T03:47:29.442Z,1.70
2017-09-19T03:49:31.918Z,2.03
2017-09-19T03:51:34.352Z,1.90
2017-09-19T03:53:36.805Z,1.57
2017-09-19T03:55:39.278Z,2.50
2017-09-19T03:57:41.721Z,2.13
2017-09-19T03:59:44.229Z,5.30
2017-09-19T04:01:46.723Z,1.50
2017-09-19T04:03:49.189Z,1.83
2017-09-19T04:05:51.654Z,1.53
2017-09-19T04:07:54.121Z,3.20
2017-09-19T04:09:56.563Z,1.80
2017-09-19T04:11:59.102Z,1.90
2017-09-19T04:14:01.695Z,1.80
2017-09-19T04:16:04.154Z,1.87
2017-09-19T04:18:06.666Z,1.80
2017-09-19T04:20:09.127Z,2.03
2017-09-19T04:22:11.566Z,2.30
2017-09-19T04:24:14.006Z,2.30
2017-09-19T04:26:16.581Z,3.17
2017-09-19T04:28:19.022Z,1.60
2017-09-19T04:30:21.486Z,2.13
2017-09-19T04:32:24.067Z,2.10
2017-09-19T04:34:26.574Z,2.00
2017-09-19T04:36:29.044Z,1.90
2017-09-19T04:38:31.541Z,5.20
2017-09-19T04:40:33.973Z,2.00
2017-09-19T04:42:36.425Z,1.83
2017-09-19T04:44:38.961Z,1.77
2017-09-19T04:46:41.458Z,1.87
2017-09-19T04:48:43.927Z,1.70
2017-09-19T04:50:46.427Z,2.17
2017-09-19T04:52:48.870Z,1.77
2017-09-19T04:54:51.314Z,1.97
2017-09-19T04:56:53.776Z,1.83
2017-09-19T04:58:56.288Z,1.70
2017-09-19T05:00:58.745Z,1.67
2017-09-19T05:03:01.275Z,1.70
2017-09-19T05:05:03.719Z,1.80
2017-09-19T05:07:06.181Z,1.80
2017-09-19T05:09:08.681Z,1.63
2017-09-19T05:11:11.299Z,1.93
2017-09-19T05:13:13.794Z,1.90
2017-09-19T05:15:16.343Z,1.80
2017-09-19T05:17:18.781Z,2.00
2017-09-19T05:19:21.225Z,2.07
2017-09-19T05:21:23.677Z,1.70
2017-09-19T05:23:26.120Z,1.80
2017-09-19T05:25:28.591Z,1.87
2017-09-19T05:27:31.317Z,2.17
2017-09-19T05:29:33.761Z,2.40
2017-09-19T05:31:36.216Z,1.90
2017-09-19T05:33:38.723Z,1.80
2017-09-19T05:35:41.217Z,1.83
2017-09-19T05:37:43.673Z,1.63
2017-09-19T05:39:46.290Z,1.73
2017-09-19T05:41:48.863Z,1.90
2017-09-19T05:43:51.379Z,2.20
2017-09-19T05:45:54.033Z,1.90
2017-09-19T05:47:56.484Z,1.70
2017-09-19T05:49:58.953Z,2.17
2017-09-19T05:52:01.425Z,2.10
2017-09-19T05:54:03.877Z,1.90
2017-09-19T05:56:06.386Z,1.70
2017-09-19T05:58:08.853Z,1.60
2017-09-19T06:00:11.354Z,3.73
2017-09-19T06:02:14.014Z,1.97
2017-09-19T06:04:16.548Z,3.07
2017-09-19T06:06:19.145Z,2.60
2017-09-19T06:08:21.601Z,2.10
2017-09-19T06:10:24.166Z,3.10
2017-09-19T06:12:26.606Z,2.20
2017-09-19T06:14:29.119Z,2.10
2017-09-19T06:16:31.670Z,4.10
2017-09-19T06:18:34.205Z,3.87
2017-09-19T06:20:36.648Z,7.10
2017-09-19T06:22:39.182Z,3.83
2017-09-19T06:24:41.636Z,2.30
2017-09-19T06:26:44.094Z,2.73
2017-09-19T06:28:46.742Z,1.90
2017-09-19T06:30:49.217Z,2.93
2017-09-19T06:32:51.672Z,1.73
2017-09-19T06:34:55.095Z,2.00
2017-09-19T06:36:57.533Z,2.40
2017-09-19T06:39:00.082Z,3.40
2017-09-19T06:41:02.613Z,1.97
2017-09-19T06:43:05.326Z,6.20
2017-09-19T06:45:07.801Z,2.33
2017-09-19T06:47:10.274Z,1.87
2017-09-19T06:49:12.773Z,4.87
2017-09-19T06:51:15.252Z,3.47
2017-09-19T06:53:17.701Z,2.17
2017-09-19T06:55:20.155Z,2.87
2017-09-19T06:57:22.629Z,2.33
2017-09-19T06:59:25.174Z,2.10
2017-09-19T07:01:27.611Z,2.40
2017-09-19T07:03:30.065Z,2.40
2017-09-19T07:05:32.528Z,2.33
2017-09-19T07:07:34.998Z,2.03
2017-09-19T07:09:37.468Z,4.53
2017-09-19T07:11:39.954Z,1.70
2017-09-19T07:13:42.587Z,2.07
2017-09-19T07:15:45.157Z,1.80
2017-09-19T07:17:47.692Z,1.93
2017-09-19T07:19:50.136Z,4.13
2017-09-19T07:21:52.593Z,2.37
2017-09-19T07:23:55.084Z,3.67
2017-09-19T07:25:57.607Z,2.60
2017-09-19T07:28:00.069Z,1.70
2017-09-19T07:30:02.737Z,1.90
2017-09-19T07:32:05.177Z,1.83
2017-09-19T07:34:07.633Z,2.30
2017-09-19T07:36:10.166Z,1.87
2017-09-19T07:38:12.669Z,3.57
2017-09-19T07:40:15.207Z,2.13
2017-09-19T07:42:17.846Z,1.90
2017-09-19T07:44:20.280Z,1.80
2017-09-19T07:46:22.824Z,2.20
2017-09-19T07:48:25.312Z,1.77
2017-09-19T07:50:27.810Z,1.70
2017-09-19T07:52:30.283Z,1.70
2017-09-19T07:54:32.743Z,1.60
2017-09-19T07:56:35.228Z,3.20
2017-09-19T07:58:37.744Z,1.90
2017-09-19T08:00:40.319Z,1.80
2017-09-19T08:02:42.807Z,2.10
2017-09-19T08:04:45.336Z,2.50
2017-09-19T08:06:47.901Z,2.30
2017-09-19T08:08:50.373Z,1.70
2017-09-19T08:10:52.948Z,3.27
2017-09-19T08:12:55.429Z,1.83
2017-09-19T08:14:57.913Z,2.00
2017-09-19T08:17:00.489Z,3.20
2017-09-19T08:19:02.961Z,3.23
2017-09-19T08:21:05.461Z,2.30
2017-09-19T08:23:07.898Z,2.90
2017-09-19T08:25:11.417Z,1.97
2017-09-19T08:27:13.884Z,2.13
2017-09-19T08:29:16.320Z,1.93
2017-09-19T08:31:19.213Z,2.23
2017-09-19T08:33:21.744Z,3.67
2017-09-19T08:35:24.189Z,1.60
2017-09-19T08:37:26.671Z,2.53
2017-09-19T08:39:29.236Z,4.40
2017-09-19T08:41:31.677Z,2.77
2017-09-19T08:43:34.155Z,3.70
2017-09-19T08:45:36.701Z,2.60
2017-09-19T08:47:39.191Z,2.23
2017-09-19T08:49:41.679Z,2.10
2017-09-19T08:51:44.173Z,2.13
2017-09-19T08:53:46.677Z,4.30
2017-09-19T08:55:49.228Z,4.57
2017-09-19T08:57:51.781Z,1.87
2017-09-19T08:59:54.268Z,2.27
2017-09-19T09:01:56.733Z,3.77
2017-09-19T09:03:59.286Z,1.93
2017-09-19T09:06:01.833Z,4.40
2017-09-19T09:08:04.301Z,2.00
2017-09-19T09:10:06.762Z,2.73
2017-09-19T09:12:09.215Z,3.90
2017-09-19T09:14:11.701Z,4.93
2017-09-19T09:16:14.213Z,2.73
2017-09-19T09:18:16.744Z,2.33
2017-09-19T09:20:19.218Z,3.40
2017-09-19T09:22:21.668Z,2.23
2017-09-19T09:24:24.184Z,2.33
2017-09-19T09:26:26.677Z,2.03
2017-09-19T09:28:29.137Z,3.23
2017-09-19T09:30:31.600Z,1.83
2017-09-19T09:32:34.239Z,2.17
2017-09-19T09:34:36.745Z,2.53
2017-09-19T09:36:39.213Z,3.20
2017-09-19T09:38:41.781Z,2.37
2017-09-19T09:40:44.409Z,3.40
2017-09-19T09:42:46.933Z,2.97
2017-09-19T09:44:49.573Z,2.17
2017-09-19T09:46:52.084Z,2.60
2017-09-19T09:48:54.621Z,2.03
2017-09-19T09:50:57.086Z,1.80
2017-09-19T09:52:59.517Z,3.40
2017-09-19T09:55:02.015Z,2.30
2017-09-19T09:57:04.504Z,2.20
2017-09-19T09:59:07.080Z,2.60
2017-09-19T10:01:09.645Z,2.77
2017-09-19T10:03:12.216Z,4.90
2017-09-19T10:05:14.690Z,2.93
2017-09-19T10:07:17.202Z,3.27
2017-09-19T10:09:19.688Z,2.27
2017-09-19T10:11:22.201Z,3.93
2017-09-19T10:13:24.734Z,2.07
2017-09-19T10:15:27.309Z,2.00
2017-09-19T10:17:29.752Z,2.90
2017-09-19T10:19:32.220Z,3.10
2017-09-19T10:21:34.810Z,2.73
2017-09-19T10:23:37.287Z,2.20
2017-09-19T10:25:39.762Z,4.03
2017-09-19T10:27:42.240Z,3.20
2017-09-19T10:29:44.831Z,3.40
2017-09-19T10:31:47.309Z,6.30
2017-09-19T10:33:49.904Z,3.60
2017-09-19T10:35:52.444Z,2.30
2017-09-19T10:37:54.889Z,4.67
2017-09-19T10:39:57.346Z,2.67
2017-09-19T10:41:59.864Z,3.73
2017-09-19T10:44:02.365Z,3.60
2017-09-19T10:46:04.835Z,4.50
2017-09-19T10:48:07.360Z,5.20
2017-09-19T10:50:09.897Z,4.10
2017-09-19T10:52:12.444Z,3.47
2017-09-19T10:54:14.898Z,3.43
2017-09-19T10:56:17.333Z,7.43
2017-09-19T10:58:19.831Z,6.20
2017-09-19T11:00:22.382Z,8.10
2017-09-19T11:02:24.956Z,7.17
2017-09-19T11:04:27.506Z,6.67
2017-09-19T11:06:29.946Z,6.27
2017-09-19T11:08:32.452Z,14.20
2017-09-19T11:10:35.125Z,9.60
2017-09-19T11:12:37.601Z,9.10
2017-09-19T11:14:40.146Z,11.20
2017-09-19T11:16:42.672Z,11.03
2017-09-19T11:18:45.155Z,11.83
2017-09-19T11:20:47.604Z,10.83
2017-09-19T11:22:50.171Z,10.00
2017-09-19T11:24:52.617Z,10.30
2017-09-19T11:26:55.341Z,10.57
2017-09-19T11:28:57.863Z,16.43
2017-09-19T11:31:00.387Z,8.77
2017-09-19T11:33:02.829Z,14.50
2017-09-19T11:35:05.605Z,10.87
2017-09-19T11:37:08.076Z,10.57
2017-09-19T11:39:10.521Z,13.83
2017-09-19T11:41:13.147Z,14.63
2017-09-19T11:43:15.608Z,8.10
2017-09-19T11:45:18.077Z,11.03
2017-09-19T11:47:20.543Z,11.40
2017-09-19T11:49:23.018Z,11.23
2017-09-19T11:51:25.491Z,9.90
2017-09-19T11:53:27.958Z,11.13
2017-09-19T11:55:30.392Z,7.47
2017-09-19T11:57:32.862Z,7.73
2017-09-19T11:59:35.345Z,10.00
2017-09-19T12:01:37.840Z,7.80
2017-09-19T12:03:40.272Z,9.93
2017-09-19T12:05:42.847Z,10.00
2017-09-19T12:07:45.285Z,9.53
2017-09-19T12:09:47.816Z,14.30
2017-09-19T12:11:50.349Z,7.70
2017-09-19T12:13:52.801Z,8.40
2017-09-19T12:15:55.272Z,8.37
2017-09-19T12:17:57.741Z,13.03
2017-09-19T12:20:00.263Z,10.40
2017-09-19T12:22:02.776Z,16.03
2017-09-19T12:24:05.324Z,13.50
2017-09-19T12:26:07.773Z,12.50
2017-09-19T12:28:10.208Z,9.07
2017-09-19T12:30:12.729Z,9.60
2017-09-19T12:32:15.217Z,13.13
2017-09-19T12:34:17.666Z,8.00
2017-09-19T12:36:20.329Z,11.20
2017-09-19T12:38:22.958Z,12.83
2017-09-19T12:40:25.490Z,11.17
2017-09-19T12:42:27.967Z,7.20
2017-09-19T12:44:30.468Z,7.80
2017-09-19T12:46:32.938Z,7.93
2017-09-19T12:48:35.478Z,5.63
2017-09-19T12:50:37.957Z,7.30
2017-09-19T12:52:40.444Z,9.23
2017-09-19T12:54:42.919Z,5.80
2017-09-19T12:56:45.356Z,6.90
2017-09-19T12:58:47.804Z,5.53
2017-09-19T13:00:50.342Z,5.83
2017-09-19T13:02:52.824Z,5.93
2017-09-19T13:04:55.254Z,7.00
2017-09-19T13:06:57.736Z,5.20
2017-09-19T13:09:00.195Z,6.20
2017-09-19T13:11:02.671Z,7.50
2017-09-19T13:13:05.230Z,5.90
2017-09-19T13:15:07.892Z,6.50
2017-09-19T13:17:10.411Z,5.50
2017-09-19T13:19:12.885Z,6.80
2017-09-19T13:21:15.379Z,8.30
2017-09-19T13:23:17.812Z,5.00
2017-09-19T13:25:20.361Z,6.93
2017-09-19T13:27:22.887Z,7.80
2017-09-19T13:29:25.406Z,5.23
2017-09-19T13:31:39.745Z,7.30
2017-09-19T13:33:51.390Z,5.40
2017-09-19T13:35:53.898Z,6.77
2017-09-19T13:37:56.595Z,5.37
2017-09-19T13:39:59.097Z,5.57
2017-09-19T13:42:01.582Z,19.40
2017-09-19T13:44:04.087Z,6.13
2017-09-19T13:46:06.541Z,6.27
2017-09-19T13:48:09.032Z,4.60
2017-09-19T13:50:11.594Z,5.90
2017-09-19T13:52:14.166Z,5.20
2017-09-19T13:54:16.801Z,5.10
2017-09-19T13:56:19.353Z,7.03
2017-09-19T13:58:21.804Z,12.40
2017-09-19T14:00:24.260Z,4.43
2017-09-19T14:02:26.782Z,6.20
2017-09-19T14:04:29.272Z,4.37
2017-09-19T14:06:31.964Z,8.20
2017-09-19T14:08:35.603Z,5.00
2017-09-19T14:10:38.065Z,5.00
2017-09-19T14:12:41.519Z,6.73
2017-09-19T14:14:44.048Z,5.00
2017-09-19T14:16:46.488Z,4.80
2017-09-19T14:18:49.024Z,8.63
2017-09-19T14:20:51.514Z,4.80
2017-09-19T14:22:53.968Z,6.03
2017-09-19T14:24:56.641Z,8.80
2017-09-19T14:26:59.129Z,4.43
2017-09-19T14:29:01.771Z,7.23
2017-09-19T14:31:04.224Z,4.80
2017-09-19T14:33:06.868Z,5.70
2017-09-19T14:35:09.399Z,4.63
2017-09-19T14:37:11.900Z,4.80
2017-09-19T14:39:14.521Z,5.20
2017-09-19T14:41:16.976Z,6.13
2017-09-19T14:43:19.640Z,5.03
2017-09-19T14:45:22.240Z,5.07
2017-09-19T14:47:24.677Z,4.40
2017-09-19T14:49:27.132Z,5.60
2017-09-19T14:51:29.692Z,5.17
2017-09-19T14:53:32.262Z,4.67
2017-09-19T14:55:34.698Z,5.60
2017-09-19T14:57:37.149Z,5.33
2017-09-19T14:59:39.677Z,4.23
2017-09-19T15:01:42.159Z,4.80
2017-09-19T15:03:45.026Z,4.80
2017-09-19T15:05:47.481Z,6.03
2017-09-19T15:07:49.931Z,6.00
2017-09-19T15:09:52.449Z,5.47
2017-09-19T15:11:54.892Z,6.03
2017-09-19T15:13:57.429Z,5.23
2017-09-19T15:16:00.061Z,7.20
2017-09-19T15:18:02.626Z,4.83
2017-09-19T15:20:06.039Z,8.07
2017-09-19T15:22:08.672Z,8.10
2017-09-19T15:24:11.253Z,7.27
2017-09-19T15:26:13.735Z,8.57
2017-09-19T15:28:16.310Z,10.57
2017-09-19T15:30:18.849Z,9.13
2017-09-19T15:32:22.365Z,7.03
2017-09-19T15:34:24.942Z,8.70
2017-09-19T15:36:27.456Z,9.40
2017-09-19T15:38:29.925Z,10.33
2017-09-19T15:40:32.561Z,5.90
2017-09-19T15:42:35.031Z,8.70
2017-09-19T15:44:37.564Z,9.03
2017-09-19T15:46:40.084Z,6.33
2017-09-19T15:48:42.518Z,8.17
2017-09-19T15:50:45.115Z,11.77
2017-09-19T15:52:47.597Z,8.10
2017-09-19T15:54:50.149Z,11.50
2017-09-19T15:56:52.611Z,9.17
2017-09-19T15:58:55.198Z,7.60
2017-09-19T16:00:57.633Z,6.17
2017-09-19T16:03:00.080Z,9.53
2017-09-19T16:05:02.614Z,8.93
2017-09-19T16:07:05.067Z,6.87
2017-09-19T16:09:07.538Z,9.07
2017-09-19T16:11:10.060Z,9.07
2017-09-19T16:13:12.595Z,9.57
2017-09-19T16:15:15.059Z,7.07
2017-09-19T16:17:17.561Z,10.30
2017-09-19T16:19:20.046Z,8.77
2017-09-19T16:21:22.581Z,9.47
2017-09-19T16:23:25.051Z,11.23
2017-09-19T16:25:27.534Z,8.33
2017-09-19T16:27:29.976Z,12.83
2017-09-19T16:29:32.443Z,8.70
2017-09-19T16:31:34.933Z,7.13
2017-09-19T16:33:37.389Z,7.73
2017-09-19T16:35:39.857Z,7.23
2017-09-19T16:37:42.300Z,9.50
2017-09-19T16:41:53.836Z,9.50
2017-09-19T16:43:56.271Z,7.30
2017-09-19T16:45:58.724Z,7.97
2017-09-19T16:48:01.195Z,7.60
2017-09-19T16:50:03.709Z,7.20
2017-09-19T16:52:06.442Z,8.30
2017-09-19T16:54:08.921Z,8.30
2017-09-19T16:56:11.417Z,7.30
2017-09-19T16:58:14.032Z,8.27
2017-09-19T17:00:16.661Z,10.37
2017-09-19T17:02:19.253Z,6.33
2017-09-19T17:04:21.706Z,8.23
2017-09-19T17:06:24.181Z,7.47
2017-09-19T17:08:26.636Z,8.53
2017-09-19T17:10:29.221Z,7.83
2017-09-19T17:12:31.687Z,5.90
2017-09-19T17:14:34.223Z,7.60
2017-09-19T17:16:36.695Z,7.30
2017-09-19T17:18:39.219Z,7.87
2017-09-19T17:20:41.894Z,6.23
2017-09-19T17:22:44.350Z,10.30
2017-09-19T17:24:46.871Z,8.07
2017-09-19T17:26:49.419Z,7.50
2017-09-19T17:28:52.185Z,5.47
2017-09-19T17:30:55.129Z,9.50
2017-09-19T17:32:57.577Z,11.03
2017-09-19T17:35:00.163Z,7.80
2017-09-19T17:37:02.655Z,6.77
2017-09-19T17:39:05.355Z,5.93
2017-09-19T17:41:07.950Z,9.20
2017-09-19T17:43:10.680Z,9.27
2017-09-19T17:45:13.244Z,8.83
2017-09-19T17:47:15.766Z,7.90
2017-09-19T17:49:18.351Z,7.30
2017-09-19T17:51:20.793Z,6.83
2017-09-19T17:53:23.232Z,8.33
2017-09-19T17:55:25.728Z,6.07
2017-09-19T17:57:28.214Z,5.20
2017-09-19T17:59:30.757Z,9.53
2017-09-19T18:01:33.249Z,6.43
2017-09-19T18:03:35.826Z,7.10
2017-09-19T18:05:38.272Z,5.37
2017-09-19T18:07:40.918Z,6.97
2017-09-19T18:09:43.526Z,6.10
2017-09-19T18:11:46.002Z,7.03
2017-09-19T18:13:48.530Z,6.23
2017-09-19T18:15:50.976Z,6.67
2017-09-19T18:17:53.520Z,4.97
2017-09-19T18:19:55.991Z,6.30
2017-09-19T18:21:58.520Z,9.30
2017-09-19T18:24:00.957Z,8.60
2017-09-19T18:26:03.463Z,19.97
2017-09-19T18:28:05.913Z,7.30
2017-09-19T18:30:08.361Z,12.40
2017-09-19T18:32:11.126Z,8.87
2017-09-19T18:34:13.580Z,7.20
2017-09-19T18:36:16.016Z,9.27
2017-09-19T18:38:18.533Z,10.90
2017-09-19T18:40:20.977Z,9.13
2017-09-19T18:42:23.416Z,7.83
2017-09-19T18:44:25.965Z,7.10
2017-09-19T18:46:28.405Z,7.17
2017-09-19T18:48:30.848Z,9.17
2017-09-19T18:50:33.358Z,8.03
2017-09-19T18:52:36.789Z,6.57
2017-09-19T18:54:39.234Z,7.67
2017-09-19T18:56:41.715Z,8.57
2017-09-19T18:58:44.219Z,9.07
2017-09-19T19:00:46.759Z,9.80
2017-09-19T19:02:49.295Z,6.83
2017-09-19T19:04:51.726Z,6.80
2017-09-19T19:06:54.483Z,8.80
2017-09-19T19:08:58.283Z,9.47
2017-09-19T19:11:00.918Z,6.57
2017-09-19T19:13:03.771Z,11.50
2017-09-19T19:15:06.304Z,8.50
2017-09-19T19:17:08.748Z,8.23
2017-09-19T19:19:11.719Z,7.13
2017-09-19T19:21:14.241Z,8.20
2017-09-19T19:23:16.687Z,8.10
2017-09-19T19:25:19.232Z,8.20
2017-09-19T19:27:21.756Z,8.60
2017-09-19T19:29:24.196Z,7.67
2017-09-19T19:31:26.681Z,6.13
2017-09-19T19:33:29.149Z,6.13
2017-09-19T19:35:31.637Z,6.67
2017-09-19T19:37:34.082Z,8.40
2017-09-19T19:39:36.628Z,7.27
2017-09-19T19:41:39.095Z,9.03
2017-09-19T19:43:41.600Z,9.30
2017-09-19T19:45:44.092Z,8.03
2017-09-19T19:47:46.610Z,11.80
2017-09-19T19:49:49.076Z,7.50
2017-09-19T19:51:51.568Z,7.40
2017-09-19T19:53:54.017Z,10.50
2017-09-19T19:55:56.528Z,9.07
2017-09-19T19:57:59.017Z,10.27
2017-09-19T20:00:01.473Z,8.10
2017-09-19T20:02:03.940Z,9.87
2017-09-19T20:04:06.408Z,9.77
2017-09-19T20:06:08.868Z,7.13
2017-09-19T20:08:11.312Z,10.33
2017-09-19T20:10:14.000Z,9.87
2017-09-19T20:12:16.559Z,9.00
2017-09-19T20:14:19.089Z,7.83
2017-09-19T20:16:21.580Z,8.03
2017-09-19T20:18:24.018Z,9.53
2017-09-19T20:20:26.483Z,10.03
2017-09-19T20:22:28.952Z,10.67
2017-09-19T20:24:31.465Z,9.53
2017-09-19T20:26:33.903Z,8.43
2017-09-19T20:28:36.426Z,10.50
2017-09-19T20:30:38.867Z,13.40
2017-09-19T20:32:41.328Z,13.10
2017-09-19T20:34:43.800Z,9.20
2017-09-19T20:36:46.373Z,9.93
2017-09-19T20:38:48.996Z,10.13
2017-09-19T20:40:51.469Z,11.93
2017-09-19T20:42:53.912Z,11.50
2017-09-19T20:44:56.375Z,10.50
2017-09-19T20:46:59.012Z,11.00
2017-09-19T20:49:01.529Z,10.30
2017-09-19T20:51:04.009Z,12.53
2017-09-19T20:53:06.517Z,10.63
2017-09-19T20:55:09.016Z,10.73
2017-09-19T20:57:11.480Z,12.17
2017-09-19T20:59:13.980Z,11.60
2017-09-19T21:01:16.428Z,11.60
2017-09-19T21:03:24.601Z,13.33
2017-09-19T21:05:32.685Z,11.00
2017-09-19T21:07:40.708Z,11.40
2017-09-19T21:09:48.829Z,15.50
2017-09-19T21:11:56.969Z,10.50
2017-09-19T21:14:05.033Z,13.10
2017-09-19T21:16:13.238Z,15.03
2017-09-19T21:18:21.337Z,13.90
2017-09-19T21:20:23.230Z,10.37
2017-09-19T21:22:25.690Z,13.77
2017-09-19T21:24:28.154Z,9.50
2017-09-19T21:26:30.626Z,12.23
2017-09-19T21:28:33.173Z,9.20
2017-09-19T21:30:35.645Z,10.67
2017-09-19T21:32:38.114Z,11.27
2017-09-19T21:34:40.588Z,9.20
2017-09-19T21:36:43.061Z,10.10
2017-09-19T21:38:45.527Z,12.60
2017-09-19T21:40:48.029Z,11.50
2017-09-19T21:42:50.488Z,11.83
2017-09-19T21:44:52.943Z,13.90
2017-09-19T21:46:55.492Z,11.17
2017-09-19T21:48:58.356Z,11.10
2017-09-19T21:51:01.737Z,12.30
2017-09-19T21:53:04.196Z,11.20
2017-09-19T21:55:06.718Z,13.17
2017-09-19T21:57:09.161Z,11.30
2017-09-19T21:59:11.609Z,13.73
2017-09-19T22:01:14.073Z,11.90
2017-09-19T22:03:16.538Z,12.03
2017-09-19T22:05:18.985Z,12.67
2017-09-19T22:07:21.459Z,11.00
2017-09-19T22:09:23.919Z,12.10
2017-09-19T22:11:26.359Z,10.73
2017-09-19T22:13:28.829Z,13.60
2017-09-19T22:15:31.322Z,13.87
2017-09-19T22:17:33.828Z,15.80
2017-09-19T22:19:36.450Z,9.77
2017-09-19T22:21:38.938Z,12.73
2017-09-19T22:23:41.574Z,13.00
2017-09-19T22:25:44.044Z,15.30
2017-09-19T22:27:46.577Z,14.00
2017-09-19T22:29:49.090Z,15.60
2017-09-19T22:31:51.568Z,13.63
2017-09-19T22:33:54.003Z,12.23
2017-09-19T22:35:56.519Z,11.50
2017-09-19T22:37:59.152Z,10.90
2017-09-19T22:40:01.596Z,10.93
2017-09-19T22:42:04.124Z,11.20
2017-09-19T22:44:06.598Z,13.80
2017-09-19T22:46:09.044Z,15.23
2017-09-19T22:48:11.581Z,15.37
2017-09-19T22:50:14.215Z,15.97
2017-09-19T22:52:16.663Z,9.57
2017-09-19T22:54:19.121Z,12.77
2017-09-19T22:56:21.604Z,15.20
2017-09-19T22:58:24.036Z,12.33
2017-09-19T23:00:26.477Z,11.87
2017-09-19T23:02:28.947Z,11.07
2017-09-19T23:04:31.414Z,13.00
2017-09-19T23:06:33.872Z,14.07
2017-09-19T23:08:36.377Z,12.43
2017-09-19T23:10:38.829Z,10.70
2017-09-19T23:12:41.280Z,12.07
2017-09-19T23:14:43.736Z,12.27
2017-09-19T23:16:46.191Z,13.40
2017-09-19T23:18:48.732Z,11.73
2017-09-19T23:20:51.187Z,14.90
2017-09-19T23:22:53.697Z,10.80
2017-09-19T23:24:56.141Z,11.73
2017-09-19T23:26:58.771Z,9.90
2017-09-19T23:29:01.265Z,12.10
2017-09-19T23:31:03.702Z,13.83
2017-09-19T23:33:06.167Z,13.33
2017-09-19T23:35:08.645Z,12.83
2017-09-19T23:37:11.082Z,14.10
2017-09-19T23:39:13.661Z,12.47
2017-09-19T23:41:16.266Z,17.27
2017-09-19T23:43:18.711Z,14.50
2017-09-19T23:45:21.205Z,17.87
2017-09-19T23:47:23.737Z,12.27
2017-09-19T23:49:26.209Z,14.87
2017-09-19T23:51:29.175Z,12.10
2017-09-19T23:53:31.632Z,13.13
2017-09-19T23:55:34.137Z,14.70
2017-09-19T23:57:36.614Z,10.90
2017-09-19T23:59:39.225Z,12.97
